Carter, OK (73627)

7:05 PM CDT on March 30, 2017 (GMT -0500)
Keahey farms | | Change Station

Elev 1982 ft 35.25 °N, 99.79 °W | Updated 16 seconds ago

Clear
Clear
77.9 °F
Feels Like 77 °F
N
0.9
Wind Variable Wind from SSE
Gusts 2.5 mph

Today
High -- | Low -- °F
--% Chance of Precip.
Yesterday
High -- | Low -- °F
Precip. -- in
Pressure 29.70 in
Visibility 10.0 miles
Clouds Clear
Heat Index 77 °F
Dew Point 17 °F
Humidity 10%
Rainfall 0.00 in
Snow Depth Not available.
7:27 AM 7:58 PM
Waxing Crescent, 11% visible
METAR KCSM 302353Z 01007KT 10SM CLR 20/06 A2972 RMK AO2 SLP056 T02000056 10211 20161 55004 $
Pressure 29.70 in
Visibility 10.0 miles
Clouds Clear
Heat Index 77 °F
Dew Point 17 °F
Humidity 10%
Rainfall 0.00 in
Snow Depth Not available.
7:27 AM 7:58 PM
Waxing Crescent, 11% visible
METAR KCSM 302353Z 01007KT 10SM CLR 20/06 A2972 RMK AO2 SLP056 T02000056 10211 20161 55004 $

Get Severe Weather Alerts

Thanks for signing up!

Be on the lookout for a verification email in your inbox.

You'll start receiving the daily forecast at 8 AM.

×

10-Day Weather Forecast

Almanac

Astronomy

Mar. 30, 2017 Rise Set
Actual Time
Civil Twilight
Nautical Twilight
Astronomical Twilight
Moon
Length of Visible Light
Length of Day
Tomorrow will be .
, % of the Moon is Illuminated

Today's Extremes

State Highs State Lows

Community

WunderPhotos

Upload Photos

1,962,540 photos uploaded!

WunderBlog® & News

Nearby

Air Quality

  Air Quality AQ Index Pollutant
Not available.

Snow Depth

Station Depth Elevation

Earthquake Activity

City Distance Mag. Time & Date
Minimum magnitude displayed is 2.5.

Earthquake Activity

City Distance Mag. Time & Date
Minimum magnitude displayed is 2.5.

Coastal Water Temperatures

Place Temperature

Stations

Nearby Weather Stations

Station Location Temp. Windchill Dew Point Humidity Wind Precip. Elev Updated Type
                   

Watches & Warnings

There are currently no watches in effect.